Latest Weather Observations for Gayndah

IDQ60801

Issued at 1:02 pm EST Tuesday 31 March 2015 (issued every 30 minutes, with the page automatically refreshed every 10 minutes)

About weather observations | Map of weather stations | Latest weather observations for QLD | Other Formats
Station Details ID: 039066 Name: GAYNDAH AIRPORT Lat: -25.62 Lon: 151.62 Height: 110.9 m
Data from the previous 72 hours. | See also: Recent months at Gayndah
Date/Time
EST
Temp
°C
App
Temp
°C
Dew
Point
Rel
Hum
%
Delta-T
°C
Wind Press
QNH
hPa
Press
MSL
hPa
Rain
since 9 am
mm
Dir
 
Spd
km/h
Gust
km/h
Spd
kts
Gust
kts
31/01:00pm 27.3 26.5 15.0 47 7.5 ENE 13 22 7 12 1019.7 1019.1 0.0
31/12:30pm 27.1 26.1 14.5 46 7.6 E 13 19 7 10 1020.2 1019.7 0.0
31/12:00pm 27.4 25.3 13.7 43 8.1 E 17 22 9 12 1020.8 1020.3 0.0
31/11:30am 26.2 25.1 14.3 48 7.1 ESE 13 19 7 10 1021.0 1020.5 0.0
31/11:00am 26.1 24.2 14.2 48 7.1 E 17 26 9 14 1021.4 1020.9 0.0
31/10:30am 26.7 25.7 14.5 47 7.3 ENE 13 22 7 12 1021.8 1021.3 0.0
31/10:00am 25.8 26.5 15.5 53 6.3 E 6 11 3 6 1022.3 1021.8 0.0
31/09:30am 24.6 25.6 16.3 60 5.1 ENE 6 13 3 7 1022.1 1021.6 0.0
31/09:00am 23.8 24.8 16.3 63 4.6 NE 6 9 3 5 1021.6 1021.1 0.0
31/08:30am 23.1 24.0 16.6 67 4.0 E 7 11 4 6 1021.7 1021.2 0.0
31/08:00am 22.6 23.5 16.6 69 3.7 E 7 13 4 7 1021.5 1021.0 0.0
31/07:30am 21.1 23.0 17.7 81 2.1 ENE 4 6 2 3 1021.2 1020.7 0.0
31/07:00am 20.4 23.2 18.0 86 1.5 CALM 0 0 0 0 1021.3 1020.8 0.0
31/06:30am 19.1 21.2 17.2 89 1.2 W 2 4 1 2 1021.1 1020.6 0.0
31/06:00am 18.8 21.0 16.6 87 1.3 CALM 0 0 0 0 1020.7 1020.2 0.0
31/05:30am 19.1 21.4 16.7 86 1.5 CALM 0 0 0 0 1020.4 1019.9 0.0
31/05:00am 19.3 21.7 16.9 86 1.5 CALM 0 0 0 0 1020.1 1019.6 0.0
31/04:30am 19.3 21.4 17.1 87 1.3 NNE 2 4 1 2 1020.0 1019.5 0.0
31/04:00am 19.1 21.4 16.7 86 1.4 CALM 0 4 0 2 1019.8 1019.3 0.0
31/03:30am 19.0 21.2 16.4 85 1.6 CALM 0 2 0 1 1020.2 1019.7 0.0
31/03:00am 19.0 21.2 16.4 85 1.6 CALM 0 0 0 0 1020.4 1019.9 0.0
31/02:30am 19.0 21.2 16.6 86 1.4 CALM 0 0 0 0 1020.6 1020.1 0.0
31/02:00am 19.1 21.4 16.7 86 1.4 CALM 0 0 0 0 1020.8 1020.3 0.0
31/01:30am 18.8 20.9 16.2 85 1.6 CALM 0 0 0 0 1020.9 1020.4 0.0
31/01:00am 18.8 20.9 16.2 85 1.6 CALM 0 0 0 0 1021.4 1020.9 0.0
31/12:30am 19.1 21.2 16.3 84 1.7 CALM 0 0 0 0 1021.9 1021.4 0.0
31/12:00am 18.9 20.8 15.7 82 1.9 CALM 0 0 0 0 1021.8 1021.3 0.0
 
Date/Time
EST
Temp
°C
App
Temp
°C
Dew
Point
Rel
Hum
%
Delta-T
°C
Wind Press
QNH
hPa
Press
MSL
hPa
Rain
since 9 am
mm
Dir
 
Spd
km/h
Gust
km/h
Spd
kts
Gust
kts
30/11:30pm 18.9 20.6 15.2 79 2.2 CALM 0 0 0 0 1022.1 1021.6 0.0
30/11:00pm 19.7 21.5 15.4 76 2.5 CALM 0 0 0 0 1022.1 1021.6 0.0
30/10:30pm 20.7 22.7 15.9 74 2.9 CALM 0 0 0 0 1022.2 1021.7 0.0
30/10:00pm 21.0 22.6 16.0 73 3.0 NE 2 2 1 1 1022.3 1021.8 0.0
30/09:30pm 21.5 22.2 16.2 72 3.2 NE 7 9 4 5 1022.4 1021.9 0.0
30/09:00pm 21.8 22.8 15.4 67 3.8 E 4 6 2 3 1022.4 1021.9 0.0
30/08:30pm 22.3 22.3 15.2 64 4.2 NE 9 13 5 7 1022.1 1021.6 0.0
30/08:00pm 22.7 22.9 14.8 61 4.7 NE 7 9 4 5 1021.7 1021.2 0.0
30/07:30pm 23.2 23.3 14.5 58 5.2 NE 7 9 4 5 1021.2 1020.7 0.0
30/07:00pm 23.6 22.7 13.8 54 5.7 ENE 11 13 6 7 1020.7 1020.2 0.0
30/06:30pm 25.3 24.7 13.5 48 6.9 E 9 13 5 7 1020.4 1019.9 0.0
30/06:00pm 26.3 25.2 12.0 41 8.2 E 9 13 5 7 1020.1 1019.6 0.0
30/05:30pm 28.1 26.3 12.0 36 9.4 ENE 13 19 7 10 1019.6 1019.0 0.0
30/05:00pm 28.6 26.1 11.2 34 10.0 ENE 15 24 8 13 1019.3 1018.7 0.0
30/04:30pm 29.5 27.4 12.4 35 10.1 ENE 15 22 8 12 1018.9 1018.3 0.0
30/04:00pm 30.5 28.6 12.9 34 10.5 ENE 15 24 8 13 1018.5 1017.9 0.0
30/03:30pm 30.5 30.1 12.9 34 10.5 ENE 7 17 4 9 1018.6 1018.0 0.0
30/03:00pm 30.5 29.9 12.4 33 10.7 ESE 7 13 4 7 1018.5 1017.9 0.0
30/02:30pm 30.3 29.1 12.7 34 10.4 E 11 24 6 13 1018.8 1018.2 0.0
30/02:00pm 30.2 28.5 12.6 34 10.4 ENE 13 22 7 12 1019.2 1018.6 0.0
30/01:30pm 30.4 28.6 13.2 35 10.3 ENE 15 24 8 13 1019.4 1018.8 0.0
30/01:00pm 30.1 28.7 13.4 36 10.0 E 13 24 7 13 1020.0 1019.5 0.0
30/12:30pm 29.9 28.3 14.0 37 9.6 E 15 24 8 13 1020.4 1019.9 0.0
30/12:00pm 29.0 27.6 14.4 41 8.8 ENE 15 22 8 12 1021.1 1020.6 0.0
30/11:30am 28.6 26.5 13.7 40 8.9 ENE 17 30 9 16 1021.6 1021.1 0.0
30/11:00am 28.1 26.4 14.7 44 8.1 E 17 24 9 13 1022.3 1021.8 0.0
30/10:30am 27.9 26.8 15.2 46 7.8 ENE 15 22 8 12 1022.9 1022.4 0.0
30/10:00am 26.9 27.0 16.5 53 6.4 E 11 19 6 10 1023.3 1022.8 0.0
30/09:30am 26.2 26.5 17.0 57 5.7 E 11 19 6 10 1023.4 1022.9 0.0
30/09:00am 25.1 24.6 16.8 60 5.1 E 15 24 8 13 1023.4 1022.9 0.0
30/08:30am 24.6 24.3 17.3 64 4.6 E 15 19 8 10 1023.1 1022.6 0.0
30/08:00am 23.0 24.8 18.7 77 2.7 ENE 7 9 4 5 1022.8 1022.3 0.0
30/07:30am 20.3 23.0 17.7 85 1.6 CALM 0 2 0 1 1022.6 1022.1 0.0
30/07:00am 17.5 19.5 16.9 96 0.4 SW 2 4 1 2 1022.2 1021.7 0.0
30/06:30am 16.6 18.5 15.8 95 0.5 CALM 0 0 0 0 1022.1 1021.6 0.0
30/06:00am 16.2 17.9 15.2 94 0.6 CALM 0 0 0 0 1021.7 1021.2 0.0
30/05:30am 16.4 18.2 15.6 95 0.5 CALM 0 0 0 0 1021.3 1020.8 0.0
30/05:00am 16.0 17.5 14.7 92 0.7 CALM 0 0 0 0 1020.9 1020.4 0.0
30/04:30am 16.3 17.9 15.0 92 0.8 CALM 0 0 0 0 1021.0 1020.5 0.0
30/04:00am 16.5 18.1 15.0 91 0.9 CALM 0 0 0 0 1020.7 1020.2 0.0
30/03:30am 16.5 18.1 15.0 91 0.9 CALM 0 0 0 0 1020.6 1020.1 0.0
30/03:00am 16.7 18.2 14.7 88 1.2 CALM 0 0 0 0 1020.8 1020.3 0.0
30/02:30am 17.5 19.2 15.3 87 1.3 CALM 0 0 0 0 1021.1 1020.6 0.0
30/02:00am 17.3 19.0 15.1 87 1.3 CALM 0 0 0 0 1021.3 1020.8 0.0
30/01:30am 17.8 19.1 15.2 85 1.5 S 2 4 1 2 1021.7 1021.2 0.0
30/01:00am 17.9 19.4 15.7 87 1.3 SSE 2 4 1 2 1021.9 1021.4 0.0
30/12:30am 18.0 19.6 14.9 82 1.8 CALM 0 0 0 0 1022.2 1021.7 0.0
30/12:00am 18.8 20.8 16.0 84 1.7 CALM 0 0 0 0 1022.3 1021.8 0.0
 
Date/Time
EST
Temp
°C
App
Temp
°C
Dew
Point
Rel
Hum
%
Delta-T
°C
Wind Press
QNH
hPa
Press
MSL
hPa
Rain
since 9 am
mm
Dir
 
Spd
km/h
Gust
km/h
Spd
kts
Gust
kts
29/11:30pm 19.0 20.7 15.3 79 2.2 CALM 0 0 0 0 1022.3 1021.8 0.0
29/11:00pm 19.8 21.2 15.4 76 2.6 W 2 4 1 2 1022.3 1021.8 0.0
29/10:30pm 20.1 21.8 15.3 74 2.8 CALM 0 2 0 1 1022.3 1021.8 0.0
29/10:00pm 20.5 21.2 15.5 73 3.0 ENE 6 6 3 3 1022.1 1021.6 0.0
29/09:30pm 21.0 21.1 15.5 71 3.3 ENE 9 9 5 5 1022.0 1021.5 0.0
29/09:00pm 21.8 21.9 15.4 67 3.8 NE 9 13 5 7 1022.1 1021.6 0.0
29/08:30pm 23.1 22.0 15.4 62 4.6 NE 15 20 8 11 1022.0 1021.5 0.0
29/08:00pm 23.4 23.0 16.2 64 4.4 ENE 13 19 7 10 1021.6 1021.1 0.0
29/07:30pm 23.9 23.7 16.7 64 4.4 ENE 13 17 7 9 1021.2 1020.7 0.0
29/07:00pm 24.4 24.4 17.1 63 4.5 ENE 13 17 7 9 1020.9 1020.4 0.0
29/06:30pm 25.1 25.1 17.1 61 5.0 ENE 13 17 7 9 1020.5 1020.0 0.0
29/06:00pm 25.9 25.3 16.7 57 5.7 NE 15 20 8 11 1020.2 1019.7 0.0
29/05:30pm 27.0 25.7 16.9 54 6.3 ENE 19 26 10 14 1019.9 1019.4 0.0
29/05:00pm 28.9 28.9 15.1 43 8.4 ENE 9 11 5 6 1019.5 1018.9 0.0
29/04:30pm 29.6 29.2 15.3 41 8.8 E 11 17 6 9 1019.5 1018.9 0.0
29/04:00pm 28.7 27.8 14.9 43 8.4 ENE 13 22 7 12 1019.4 1018.8 0.0
29/03:30pm 29.8 29.6 14.7 39 9.2 NE 9 17 5 9 1019.5 1018.9 0.0
29/03:00pm 29.5 28.9 14.5 40 9.1 NE 11 19 6 10 1019.5 1018.9 0.0
29/02:30pm 29.6 29.0 15.7 43 8.6 E 13 19 7 10 1019.6 1019.0 0.0
29/02:00pm 29.3 27.6 14.7 41 8.9 ENE 17 26 9 14 1019.7 1019.1 0.0
29/01:30pm 30.1 28.9 15.0 40 9.3 NE 15 28 8 15 1020.0 1019.5 0.0
29/01:00pm 30.0 29.8 15.7 42 8.9 E 11 20 6 11 1020.4 1019.9 0.0
29/12:30pm 29.9 28.7 16.0 43 8.7 E 17 26 9 14 1020.8 1020.3 0.0
29/12:00pm 28.9 28.1 15.1 43 8.4 ESE 13 32 7 17 1021.4 1020.9 0.0
29/11:30am 28.9 28.3 14.7 42 8.6 ESE 11 17 6 9 1021.8 1021.3 0.0
29/11:00am 28.3 27.9 15.2 44 8.0 E 11 17 6 9 1022.2 1021.7 0.0
29/10:30am 28.4 28.8 17.3 51 7.0 ESE 11 19 6 10 1022.4 1021.9 0.0
29/10:00am 27.9 27.6 16.5 50 7.1 E 13 22 7 12 1022.5 1022.0 0.0
29/09:30am 27.3 26.5 17.2 54 6.4 E 17 24 9 13 1022.6 1022.1 0.0
29/09:00am 26.7 25.8 16.9 55 6.1 E 17 24 9 13 1022.5 1022.0 0.2
29/08:30am 25.4 24.6 17.1 60 5.2 ESE 17 22 9 12 1022.5 1022.0 0.2
29/08:00am 25.0 24.8 17.5 63 4.7 E 15 24 8 13 1022.1 1021.6 0.2
29/07:30am 24.4 25.1 17.9 67 4.1 E 11 20 6 11 1021.8 1021.3 0.2
29/07:00am 23.6 25.3 18.5 73 3.2 ESE 7 11 4 6 1021.1 1020.6 0.2
29/06:30am 22.7 24.6 18.5 77 2.7 ESE 6 9 3 5 1020.6 1020.1 0.2
29/06:00am 22.3 23.9 18.3 78 2.5 E 7 11 4 6 1020.3 1019.8 0.2
29/05:30am 22.8 23.3 18.3 76 2.8 ESE 13 19 7 10 1019.8 1019.3 0.2
29/05:00am 23.1 24.1 18.6 76 2.8 ESE 11 20 6 11 1019.4 1018.8 0.2
29/04:30am 23.4 24.5 18.9 76 2.9 E 11 17 6 9 1019.2 1018.6 0.2
29/04:00am 23.4 24.7 19.3 78 2.6 E 11 17 6 9 1018.8 1018.2 0.2
29/03:30am 23.4 25.2 19.5 79 2.5 E 9 13 5 7 1018.9 1018.3 0.2
29/03:00am 23.5 25.8 19.8 80 2.4 ESE 7 13 4 7 1019.0 1018.4 0.2
29/02:30am 23.4 26.1 20.2 82 2.1 ESE 6 7 3 4 1018.8 1018.2 0.2
29/02:00am 22.7 25.3 20.0 85 1.7 ESE 6 7 3 4 1019.3 1018.7 0.2
29/01:30am 22.2 25.0 19.7 86 1.6 E 4 6 2 3 1019.5 1018.9 0.2
29/01:00am 22.6 26.0 19.4 82 2.0 CALM 0 0 0 0 1019.8 1019.3 0.2
29/12:30am 23.2 26.4 19.8 81 2.2 E 2 6 1 3 1020.0 1019.5 0.2
29/12:00am 23.3 25.6 19.9 81 2.2 E 7 11 4 6 1019.7 1019.1 0.2
 
Date/Time
EST
Temp
°C
App
Temp
°C
Dew
Point
Rel
Hum
%
Delta-T
°C
Wind Press
QNH
hPa
Press
MSL
hPa
Rain
since 9 am
mm
Dir
 
Spd
km/h
Gust
km/h
Spd
kts
Gust
kts
28/11:30pm 23.4 25.3 19.8 80 2.3 E 9 13 5 7 1019.8 1019.3 0.2
28/11:00pm 23.4 24.9 19.8 80 2.3 E 11 17 6 9 1020.0 1019.5 0.2
28/10:30pm 23.7 25.7 20.0 80 2.4 E 9 13 5 7 1020.2 1019.7 0.2
28/10:00pm 23.5 26.3 20.4 83 2.0 E 6 9 3 5 1020.4 1019.9 0.2
28/09:30pm 23.3 26.7 21.6 90 1.1 NE 6 6 3 3 1020.3 1019.8 0.2
28/09:00pm 23.3 26.7 21.6 90 1.1 E 6 7 3 4 1020.1 1019.6 0.2
28/08:30pm 23.4 26.9 21.8 91 1.1 ENE 6 9 3 5 1020.1 1019.6 0.2
28/08:00pm 23.2 26.6 21.6 91 1.1 NNE 6 7 3 4 1019.9 1019.4 0.2
28/07:30pm 23.2 25.7 21.1 88 1.4 NE 9 13 5 7 1019.1 1018.5 0.2
28/07:00pm 23.3 25.9 21.2 88 1.4 ESE 9 15 5 8 1018.7 1018.1 0.2
28/06:30pm 25.0 25.7 20.5 76 2.9 ESE 17 32 9 17 1018.3 1017.7 0.0
28/06:00pm 27.3 28.9 19.9 64 4.8 NE 11 15 6 8 1017.5 1016.9 0.0
28/05:30pm 28.0 28.4 19.8 61 5.4 NE 17 26 9 14 1017.0 1016.4 0.0
28/05:00pm 27.9 27.8 19.9 61 5.2 NE 20 28 11 15 1016.6 1016.0 0.0
28/04:30pm 28.3 28.3 20.1 61 5.4 NE 20 33 11 18 1016.5 1015.9 0.0
28/04:00pm 29.0 28.7 20.4 59 5.7 NE 22 32 12 17 1016.2 1015.6 0.0
28/03:41pm 30.9 30.8 19.9 52 7.3 NE 20 39 11 21 1015.9 1015.3 0.0
28/03:30pm 32.8 34.7 18.9 43 9.1 NNE 7 15 4 8 1015.9 1015.3 0.0
28/03:00pm 31.0 32.7 18.4 47 8.2 E 7 15 4 8 1016.1 1015.5 0.0
28/02:30pm 31.8 33.9 19.4 47 8.2 NNE 7 13 4 7 1016.5 1015.9 0.0
28/02:00pm 31.7 33.4 19.3 47 8.1 E 9 17 5 9 1016.9 1016.3 0.0
28/01:30pm 31.4 32.6 20.0 50 7.6 ESE 13 19 7 10 1017.4 1016.8 0.0

Other Formats:

Comma delimited format used in spreadsheet applications
http://www.bom.gov.au/fwo/IDQ60801/IDQ60801.95543.axf

JavaScript Object Notation format (JSON) in row-major order
http://www.bom.gov.au/fwo/IDQ60801/IDQ60801.95543.json